createdAt,value
2023-02-16T00:01:58.623Z,16.35
2023-02-16T00:04:31.078Z,16.33
2023-02-16T00:09:25.108Z,13.55
2023-02-16T00:12:11.323Z,14.43
2023-02-16T00:14:39.973Z,13.18
2023-02-16T00:17:07.390Z,13.57
2023-02-16T00:19:39.328Z,13.20
2023-02-16T00:22:07.353Z,13.10
2023-02-16T00:24:34.185Z,13.18
2023-02-16T00:27:01.832Z,14.00
2023-02-16T00:29:34.717Z,13.20
2023-02-16T00:32:04.584Z,14.88
2023-02-16T00:34:31.279Z,14.73
2023-02-16T00:37:01.732Z,12.70
2023-02-16T00:39:29.080Z,12.82
2023-02-16T00:42:00.142Z,10.40
2023-02-16T00:44:32.856Z,11.30
2023-02-16T00:47:27.682Z,11.20
2023-02-16T00:49:57.099Z,11.95
2023-02-16T00:52:29.854Z,12.10
2023-02-16T00:54:57.768Z,11.82
2023-02-16T00:57:25.942Z,12.25
2023-02-16T01:00:00.298Z,13.02
2023-02-16T01:02:27.153Z,12.77
2023-02-16T01:04:54.155Z,12.25
2023-02-16T01:07:39.460Z,14.70
2023-02-16T01:10:25.331Z,14.10
2023-02-16T01:12:52.065Z,15.80
2023-02-16T01:15:24.576Z,15.82
2023-02-16T01:17:51.772Z,15.95
2023-02-16T01:20:24.490Z,13.82
2023-02-16T01:22:51.288Z,13.73
2023-02-16T01:25:18.395Z,14.45
2023-02-16T01:27:47.693Z,13.27
2023-02-16T01:30:17.462Z,14.05
2023-02-16T01:32:47.476Z,14.15
2023-02-16T01:35:14.188Z,14.73
2023-02-16T01:37:40.887Z,13.85
2023-02-16T01:40:23.066Z,14.93
2023-02-16T01:42:54.851Z,15.75
2023-02-16T01:45:32.920Z,14.77
2023-02-16T01:48:12.453Z,13.88
2023-02-16T01:50:49.497Z,15.30
2023-02-16T01:53:22.189Z,14.45
2023-02-16T01:55:55.839Z,15.57
2023-02-16T01:58:37.467Z,15.10
2023-02-16T02:01:05.317Z,14.15
2023-02-16T02:03:53.790Z,13.80
2023-02-16T02:06:24.067Z,13.23
2023-02-16T02:09:00.137Z,14.55
2023-02-16T02:11:36.159Z,15.85
2023-02-16T02:14:13.319Z,23.17
2023-02-16T02:16:41.337Z,29.38
2023-02-16T02:19:08.048Z,29.70
2023-02-16T02:22:21.606Z,30.35
2023-02-16T02:24:48.194Z,21.40
2023-02-16T02:27:24.140Z,21.27
2023-02-16T02:30:18.841Z,18.17
2023-02-16T02:33:07.301Z,19.15
2023-02-16T02:35:52.782Z,14.65
2023-02-16T02:38:42.199Z,15.55
2023-02-16T02:41:56.910Z,16.83
2023-02-16T02:44:27.300Z,15.05
2023-02-16T02:46:55.339Z,14.48
2023-02-16T02:49:22.426Z,14.27
2023-02-16T02:51:50.057Z,13.05
2023-02-16T02:54:55.554Z,12.57
2023-02-16T02:57:47.966Z,11.68
2023-02-16T03:00:44.798Z,12.15
2023-02-16T03:03:47.309Z,10.65
2023-02-16T03:06:36.594Z,10.75
2023-02-16T03:09:11.368Z,10.25
2023-02-16T03:11:57.240Z,10.95
2023-02-16T03:14:33.489Z,10.52
2023-02-16T03:17:21.173Z,10.38
2023-02-16T03:20:08.673Z,10.05
2023-02-16T03:22:56.576Z,11.20
2023-02-16T03:25:45.018Z,9.57
2023-02-16T03:28:31.744Z,9.57
2023-02-16T03:31:01.628Z,9.18
2023-02-16T03:33:29.469Z,10.35
2023-02-16T03:35:57.006Z,9.82
2023-02-16T03:38:24.139Z,11.52
2023-02-16T03:40:52.317Z,13.80
2023-02-16T03:43:19.133Z,12.60
2023-02-16T03:45:46.027Z,13.18
2023-02-16T03:48:13.303Z,12.45
2023-02-16T03:50:40.029Z,12.57
2023-02-16T03:53:07.109Z,12.55
2023-02-16T03:55:37.991Z,12.85
2023-02-16T03:58:06.682Z,12.43
2023-02-16T04:00:34.289Z,12.02
2023-02-16T04:03:01.320Z,12.15
2023-02-16T04:05:28.109Z,11.23
2023-02-16T04:07:54.852Z,11.13
2023-02-16T04:10:21.814Z,12.20
2023-02-16T04:12:48.500Z,11.10
2023-02-16T04:15:21.771Z,11.00
2023-02-16T04:17:49.366Z,10.63
2023-02-16T04:20:19.131Z,10.57
2023-02-16T04:22:46.439Z,10.57
2023-02-16T04:25:13.953Z,11.23
2023-02-16T04:27:41.920Z,10.82
2023-02-16T04:30:11.795Z,11.40
2023-02-16T04:32:38.761Z,10.73
2023-02-16T04:35:06.390Z,9.88
2023-02-16T04:37:33.074Z,10.65
2023-02-16T04:39:59.819Z,9.93
2023-02-16T04:42:26.446Z,9.65
2023-02-16T04:44:53.455Z,8.75
2023-02-16T04:47:20.214Z,8.40
2023-02-16T04:49:49.179Z,8.15
2023-02-16T04:52:16.808Z,9.68
2023-02-16T04:54:43.680Z,9.27
2023-02-16T04:57:10.982Z,9.55
2023-02-16T04:59:38.020Z,10.35
2023-02-16T05:02:05.049Z,9.55
2023-02-16T05:04:31.789Z,8.95
2023-02-16T05:06:58.944Z,9.65
2023-02-16T05:09:25.654Z,10.23
2023-02-16T05:12:11.010Z,9.50
2023-02-16T05:14:46.698Z,11.15
2023-02-16T05:17:21.128Z,10.30
2023-02-16T05:19:50.341Z,10.50
2023-02-16T05:22:17.644Z,10.70
2023-02-16T05:24:44.940Z,10.00
2023-02-16T05:27:14.868Z,10.40
2023-02-16T05:29:41.526Z,10.27
2023-02-16T05:32:08.399Z,11.75
2023-02-16T05:34:35.251Z,11.90
2023-02-16T05:37:01.838Z,10.02
2023-02-16T05:39:28.597Z,12.82
2023-02-16T05:41:55.453Z,11.05
2023-02-16T05:44:22.282Z,10.45
2023-02-16T05:46:49.003Z,20.13
2023-02-16T05:49:16.439Z,15.60
2023-02-16T05:51:43.307Z,10.00
2023-02-16T05:54:17.007Z,10.57
2023-02-16T05:56:45.776Z,8.80
2023-02-16T05:59:12.957Z,8.93
2023-02-16T06:01:41.013Z,9.25
2023-02-16T06:04:12.475Z,9.57
2023-02-16T06:06:39.646Z,10.98
2023-02-16T06:09:07.519Z,10.15
2023-02-16T06:11:37.190Z,9.70
2023-02-16T06:14:08.868Z,9.80
2023-02-16T06:16:37.263Z,11.18
2023-02-16T06:19:04.446Z,8.63
2023-02-16T06:21:31.369Z,7.97
2023-02-16T06:23:58.370Z,8.80
2023-02-16T06:26:25.196Z,20.77
2023-02-16T06:28:52.190Z,12.43
2023-02-16T06:31:19.340Z,12.52
2023-02-16T06:33:46.476Z,13.85
2023-02-16T06:36:13.965Z,12.88
2023-02-16T06:38:40.784Z,12.57
2023-02-16T06:41:07.453Z,12.60
2023-02-16T06:43:34.175Z,14.88
2023-02-16T06:46:00.853Z,15.15
2023-02-16T06:48:27.585Z,14.38
2023-02-16T06:50:54.412Z,13.02
2023-02-16T06:53:21.116Z,14.57
2023-02-16T06:55:51.011Z,14.57
2023-02-16T06:58:17.657Z,13.75
2023-02-16T07:00:44.420Z,12.40
2023-02-16T07:03:11.166Z,13.05
2023-02-16T07:05:37.962Z,15.77
2023-02-16T07:08:04.913Z,19.95
2023-02-16T07:10:43.935Z,15.85
2023-02-16T07:13:15.577Z,14.45
2023-02-16T07:15:42.245Z,12.75
2023-02-16T07:18:08.880Z,13.25
2023-02-16T07:20:35.506Z,12.48
2023-02-16T07:23:02.142Z,13.20
2023-02-16T07:25:28.846Z,13.38
2023-02-16T07:27:55.559Z,12.98
2023-02-16T07:30:22.646Z,12.90
2023-02-16T07:32:49.360Z,12.90
2023-02-16T07:35:16.016Z,12.25
2023-02-16T07:37:42.643Z,12.85
2023-02-16T07:40:10.760Z,11.95
2023-02-16T07:42:37.494Z,16.17
2023-02-16T07:45:04.434Z,15.43
2023-02-16T07:47:31.079Z,14.80
2023-02-16T07:49:57.702Z,14.45
2023-02-16T07:52:30.912Z,12.23
2023-02-16T07:54:59.160Z,13.25
2023-02-16T07:57:27.266Z,14.30
2023-02-16T07:59:54.613Z,15.60
2023-02-16T08:02:23.055Z,11.13
2023-02-16T08:04:52.857Z,10.60
2023-02-16T08:07:20.146Z,8.95
2023-02-16T08:09:47.112Z,8.43
2023-02-16T08:12:15.211Z,8.40
2023-02-16T08:14:42.431Z,7.88
2023-02-16T08:17:10.069Z,10.55
2023-02-16T08:19:40.330Z,10.93
2023-02-16T08:22:08.432Z,9.82
2023-02-16T08:24:36.074Z,11.25
2023-02-16T08:27:04.388Z,17.48
2023-02-16T08:29:32.148Z,14.73
2023-02-16T08:31:59.314Z,16.65
2023-02-16T08:34:26.675Z,13.80
2023-02-16T08:36:56.408Z,12.48
2023-02-16T08:39:26.030Z,12.13
2023-02-16T08:41:53.945Z,10.73
2023-02-16T08:44:22.580Z,9.65
2023-02-16T08:46:50.636Z,8.75
2023-02-16T08:49:19.576Z,8.48
2023-02-16T08:51:49.137Z,7.20
2023-02-16T08:54:22.303Z,8.00
2023-02-16T08:56:49.757Z,7.38
2023-02-16T08:59:18.636Z,6.80
2023-02-16T09:01:45.654Z,7.10
2023-02-16T09:04:13.137Z,6.35
2023-02-16T09:06:42.209Z,6.80
2023-02-16T09:09:09.340Z,7.15
2023-02-16T09:11:36.871Z,6.60
2023-02-16T09:14:04.901Z,7.05
2023-02-16T09:16:38.494Z,6.22
2023-02-16T09:19:06.564Z,7.03
2023-02-16T09:21:33.980Z,7.20
2023-02-16T09:24:05.057Z,8.15
2023-02-16T09:26:34.946Z,6.65
2023-02-16T09:29:27.864Z,7.45
2023-02-16T09:31:55.022Z,7.10
2023-02-16T09:34:23.161Z,6.65
2023-02-16T09:36:50.723Z,6.15
2023-02-16T09:39:18.574Z,5.82
2023-02-16T09:42:10.818Z,5.75
2023-02-16T09:44:46.523Z,5.35
2023-02-16T09:47:31.034Z,5.82
2023-02-16T09:50:02.006Z,6.53
2023-02-16T09:52:36.411Z,5.75
2023-02-16T09:55:08.398Z,5.75
2023-02-16T09:57:57.185Z,5.85
2023-02-16T10:00:33.157Z,5.38
2023-02-16T10:03:10.352Z,4.55
2023-02-16T10:06:06.413Z,4.75
2023-02-16T10:08:45.376Z,5.07
2023-02-16T10:11:42.084Z,4.82
2023-02-16T10:14:19.794Z,5.03
2023-02-16T10:16:57.211Z,4.90
2023-02-16T10:19:29.649Z,4.63
2023-02-16T10:22:00.903Z,5.00
2023-02-16T10:24:29.955Z,4.95
2023-02-16T10:27:08.411Z,5.43
2023-02-16T10:29:35.214Z,4.88
2023-02-16T10:32:26.829Z,4.75
2023-02-16T10:35:28.978Z,5.07
2023-02-16T10:38:13.584Z,4.50
2023-02-16T10:41:03.957Z,4.03
2023-02-16T10:43:49.087Z,4.72
2023-02-16T10:46:23.737Z,5.07
2023-02-16T10:48:54.631Z,4.30
2023-02-16T10:51:28.046Z,3.88
2023-02-16T10:54:05.557Z,4.00
2023-02-16T10:56:57.355Z,4.03
2023-02-16T10:59:42.610Z,3.67
2023-02-16T11:02:31.173Z,3.97
2023-02-16T11:04:59.017Z,3.40
2023-02-16T11:07:30.159Z,3.50
2023-02-16T11:10:01.590Z,3.37
2023-02-16T11:12:39.585Z,3.25
2023-02-16T11:15:16.750Z,3.45
2023-02-16T11:17:53.785Z,4.13
2023-02-16T11:20:52.969Z,3.45
2023-02-16T11:23:28.711Z,3.42
2023-02-16T11:25:57.119Z,2.88
2023-02-16T11:28:38.235Z,3.35
2023-02-16T11:31:23.166Z,3.03
2023-02-16T11:34:15.473Z,3.42
2023-02-16T11:36:45.391Z,3.40
2023-02-16T11:39:19.012Z,2.85
2023-02-16T11:41:49.112Z,3.10
2023-02-16T11:44:24.860Z,3.28
2023-02-16T11:46:52.232Z,3.50
2023-02-16T11:49:38.892Z,3.40
2023-02-16T11:52:38.177Z,3.47
2023-02-16T11:55:18.475Z,2.65
2023-02-16T11:57:45.092Z,3.25
2023-02-16T12:00:19.083Z,3.85
2023-02-16T12:03:06.299Z,2.47
2023-02-16T12:05:46.748Z,2.80
2023-02-16T12:08:22.494Z,3.20
2023-02-16T12:11:09.361Z,2.55
2023-02-16T12:13:42.709Z,3.15
2023-02-16T12:16:44.053Z,2.90
2023-02-16T12:19:20.981Z,3.28
2023-02-16T12:21:51.142Z,3.15
2023-02-16T12:24:47.334Z,2.38
2023-02-16T12:27:18.681Z,2.78
2023-02-16T12:30:01.670Z,2.45
2023-02-16T12:33:00.828Z,2.50
2023-02-16T12:35:34.372Z,2.20
2023-02-16T12:38:16.592Z,2.00
2023-02-16T12:43:40.539Z,2.28
2023-02-16T12:46:33.413Z,2.80
2023-02-16T12:49:16.771Z,2.72
2023-02-16T12:51:53.064Z,2.50
2023-02-16T12:54:26.600Z,2.60
2023-02-16T12:57:24.630Z,2.40
2023-02-16T12:59:59.580Z,2.47
2023-02-16T13:02:51.346Z,2.25
2023-02-16T13:05:24.994Z,2.50
2023-02-16T13:08:02.763Z,2.30
2023-02-16T13:10:38.772Z,2.50
2023-02-16T13:13:20.147Z,2.28
2023-02-16T13:15:53.054Z,2.00
2023-02-16T13:18:24.032Z,2.20
2023-02-16T13:21:02.256Z,2.17
2023-02-16T13:23:42.150Z,3.15
2023-02-16T13:26:29.113Z,2.80
2023-02-16T13:29:16.422Z,2.80
2023-02-16T13:31:54.538Z,2.75
2023-02-16T13:34:33.386Z,2.70
2023-02-16T13:37:17.835Z,3.15
2023-02-16T13:40:10.763Z,3.35
2023-02-16T13:43:03.987Z,3.10
2023-02-16T13:45:39.420Z,3.33
2023-02-16T13:48:27.302Z,3.45
2023-02-16T13:51:04.328Z,3.40
2023-02-16T13:53:38.588Z,5.40
2023-02-16T13:56:31.359Z,4.70
2023-02-16T13:59:19.477Z,5.57
2023-02-16T14:01:48.273Z,4.30
2023-02-16T14:04:24.751Z,4.55
2023-02-16T14:07:15.215Z,5.45
2023-02-16T14:09:42.170Z,5.10
2023-02-16T14:12:09.465Z,5.43
2023-02-16T14:14:42.362Z,5.85
2023-02-16T14:17:16.498Z,5.97
2023-02-16T14:19:55.391Z,5.75
2023-02-16T14:22:29.688Z,6.57
2023-02-16T14:24:59.780Z,6.90
2023-02-16T14:27:43.479Z,6.28
2023-02-16T14:30:35.004Z,6.47
2023-02-16T14:33:09.575Z,6.50
2023-02-16T14:35:38.453Z,6.05
2023-02-16T14:38:22.142Z,5.43
2023-02-16T14:41:03.499Z,6.50
2023-02-16T14:43:30.069Z,6.90
2023-02-16T14:46:31.247Z,7.40
2023-02-16T14:49:16.823Z,8.02
2023-02-16T14:52:27.026Z,11.63
2023-02-16T14:55:23.211Z,6.82
2023-02-16T14:58:19.946Z,9.13
2023-02-16T15:00:54.343Z,7.00
2023-02-16T15:03:26.453Z,7.35
2023-02-16T15:05:57.870Z,7.80
2023-02-16T15:08:35.179Z,9.13
2023-02-16T15:11:21.146Z,8.93
2023-02-16T15:13:52.494Z,7.65
2023-02-16T15:16:22.708Z,7.68
2023-02-16T15:18:55.892Z,8.02
2023-02-16T15:21:28.810Z,7.13
2023-02-16T15:23:57.936Z,7.32
2023-02-16T15:26:33.339Z,6.25
2023-02-16T15:29:21.294Z,6.80
2023-02-16T15:31:48.715Z,8.20
2023-02-16T15:34:36.225Z,8.50
2023-02-16T15:37:22.933Z,11.50
2023-02-16T15:40:08.683Z,12.15
2023-02-16T15:42:41.091Z,13.25
2023-02-16T15:45:35.570Z,10.80
2023-02-16T15:48:36.756Z,10.88
2023-02-16T15:51:11.556Z,8.70
2023-02-16T15:53:41.464Z,7.35
2023-02-16T15:56:40.470Z,7.70
2023-02-16T15:59:34.356Z,7.13
2023-02-16T16:02:17.355Z,7.28
2023-02-16T16:04:54.935Z,7.63
2023-02-16T16:07:27.458Z,6.50
2023-02-16T16:09:56.822Z,6.55
2023-02-16T16:12:25.736Z,8.10
2023-02-16T16:14:59.552Z,8.30
2023-02-16T16:17:37.965Z,7.75
2023-02-16T16:20:37.244Z,8.95
2023-02-16T16:23:24.961Z,7.93
2023-02-16T16:25:52.154Z,6.57
2023-02-16T16:28:24.762Z,5.80
2023-02-16T16:31:16.991Z,5.55
2023-02-16T16:34:00.001Z,5.20
2023-02-16T16:36:32.623Z,6.00
2023-02-16T16:39:22.182Z,5.40
2023-02-16T16:41:57.842Z,6.72
2023-02-16T16:44:39.446Z,5.40
2023-02-16T16:47:37.219Z,5.65
2023-02-16T16:50:32.180Z,5.65
2023-02-16T16:52:58.900Z,5.15
2023-02-16T16:55:32.253Z,6.07
2023-02-16T16:58:05.533Z,5.50
2023-02-16T17:00:35.593Z,5.00
2023-02-16T17:03:04.307Z,5.30
2023-02-16T17:05:30.987Z,5.95
2023-02-16T17:07:57.798Z,5.13
2023-02-16T17:10:24.946Z,4.88
2023-02-16T17:12:55.937Z,4.63
2023-02-16T17:15:48.027Z,5.00
2023-02-16T17:18:18.165Z,6.10
2023-02-16T17:20:46.020Z,6.35
2023-02-16T17:23:14.176Z,6.68
2023-02-16T17:25:41.383Z,7.50
2023-02-16T17:28:08.881Z,8.02
2023-02-16T17:30:35.940Z,7.30
2023-02-16T17:33:03.753Z,6.97
2023-02-16T17:35:31.628Z,8.65
2023-02-16T17:37:58.400Z,11.68
2023-02-16T17:40:26.426Z,11.88
2023-02-16T17:42:53.073Z,11.02
2023-02-16T17:45:22.106Z,9.35
2023-02-16T17:47:51.801Z,9.70
2023-02-16T17:50:19.729Z,9.05
2023-02-16T17:52:46.421Z,9.35
2023-02-16T17:55:13.616Z,8.90
2023-02-16T17:57:40.328Z,9.32
2023-02-16T18:00:14.059Z,8.48
2023-02-16T18:02:40.669Z,10.18
2023-02-16T18:05:08.013Z,10.55
2023-02-16T18:07:34.635Z,10.13
2023-02-16T18:10:01.358Z,7.97
2023-02-16T18:12:28.548Z,7.45
2023-02-16T18:14:55.308Z,6.43
2023-02-16T18:17:21.995Z,7.57
2023-02-16T18:19:48.637Z,7.75
2023-02-16T18:22:15.335Z,7.60
2023-02-16T18:24:44.388Z,8.65
2023-02-16T18:27:11.008Z,8.82
2023-02-16T18:29:37.713Z,9.35
2023-02-16T18:32:04.571Z,8.15
2023-02-16T18:34:32.544Z,8.20
2023-02-16T18:36:59.186Z,8.80
2023-02-16T18:39:25.966Z,9.20
2023-02-16T18:41:52.601Z,8.63
2023-02-16T18:44:19.240Z,7.25
2023-02-16T18:46:45.915Z,7.03
2023-02-16T18:49:12.528Z,6.63
2023-02-16T18:51:39.169Z,6.53
2023-02-16T18:54:05.849Z,6.35
2023-02-16T18:56:35.406Z,6.30
2023-02-16T18:59:02.120Z,6.43
2023-02-16T19:01:32.456Z,5.97
2023-02-16T19:04:00.617Z,6.97
2023-02-16T19:06:27.443Z,7.35
2023-02-16T19:08:54.250Z,6.85
2023-02-16T19:11:22.149Z,7.05
2023-02-16T19:13:49.096Z,6.63
2023-02-16T19:16:16.827Z,5.22
2023-02-16T19:18:43.507Z,11.73
2023-02-16T19:21:12.383Z,12.60
2023-02-16T19:23:39.166Z,9.00
2023-02-16T19:26:12.503Z,6.38
2023-02-16T19:28:40.132Z,5.95
2023-02-16T19:31:09.015Z,6.88
2023-02-16T19:33:35.948Z,4.50
2023-02-16T19:36:05.557Z,3.70
2023-02-16T19:38:32.793Z,4.38
2023-02-16T19:40:59.969Z,4.18
2023-02-16T19:43:26.993Z,4.75
2023-02-16T19:45:54.445Z,4.10
2023-02-16T19:48:21.090Z,4.03
2023-02-16T19:50:47.773Z,4.50
2023-02-16T19:53:14.440Z,5.43
2023-02-16T19:55:42.173Z,5.00
2023-02-16T19:58:08.968Z,4.82
2023-02-16T20:00:36.640Z,4.88
2023-02-16T20:03:03.889Z,5.43
2023-02-16T20:05:30.591Z,4.70
2023-02-16T20:07:57.457Z,4.60
2023-02-16T20:10:24.179Z,4.43
2023-02-16T20:12:50.793Z,3.70
2023-02-16T20:15:18.035Z,4.50
2023-02-16T20:17:44.644Z,4.05
2023-02-16T20:20:12.389Z,4.00
2023-02-16T20:22:39.061Z,3.38
2023-02-16T20:25:06.080Z,3.60
2023-02-16T20:27:32.863Z,3.83
2023-02-16T20:30:02.862Z,3.53
2023-02-16T20:32:30.101Z,3.60
2023-02-16T20:34:58.010Z,3.72
2023-02-16T20:37:24.779Z,3.60
2023-02-16T20:39:51.425Z,4.00
2023-02-16T20:42:18.073Z,3.45
2023-02-16T20:44:44.768Z,3.53
2023-02-16T20:47:11.424Z,4.35
2023-02-16T20:49:38.077Z,3.85
2023-02-16T20:52:04.878Z,4.07
2023-02-16T20:54:31.662Z,4.32
2023-02-16T20:56:58.288Z,4.50
2023-02-16T20:59:24.928Z,4.78
2023-02-16T21:01:52.856Z,5.10
2023-02-16T21:04:20.944Z,4.97
2023-02-16T21:06:48.379Z,5.28
2023-02-16T21:09:15.701Z,4.43
2023-02-16T21:11:43.003Z,4.95
2023-02-16T21:14:11.749Z,5.35
2023-02-16T21:16:38.507Z,5.40
2023-02-16T21:19:11.761Z,3.92
2023-02-16T21:21:41.600Z,3.75
2023-02-16T21:24:08.346Z,3.78
2023-02-16T21:26:34.971Z,4.30
2023-02-16T21:29:01.638Z,3.97
2023-02-16T21:31:28.424Z,4.80
2023-02-16T21:33:55.342Z,4.60
2023-02-16T21:36:24.401Z,4.57
2023-02-16T21:38:51.221Z,4.43
2023-02-16T21:41:29.044Z,4.45
2023-02-16T21:43:59.648Z,4.30
2023-02-16T21:46:31.979Z,4.35
2023-02-16T21:51:28.794Z,4.28
2023-02-16T21:53:56.621Z,4.95
2023-02-16T21:56:28.227Z,4.40
2023-02-16T21:58:55.126Z,4.43
2023-02-16T22:01:30.046Z,3.85
2023-02-16T22:03:59.391Z,4.05
2023-02-16T22:06:34.807Z,4.25
2023-02-16T22:09:05.574Z,4.22
2023-02-16T22:11:32.214Z,3.90
2023-02-16T22:14:00.758Z,4.10
2023-02-16T22:16:29.617Z,3.45
2023-02-16T22:19:04.069Z,3.13
2023-02-16T22:21:31.692Z,3.67
2023-02-16T22:24:00.755Z,3.80
2023-02-16T22:26:30.285Z,3.85
2023-02-16T22:28:57.617Z,3.78
2023-02-16T22:31:26.959Z,4.60
2023-02-16T22:33:58.661Z,4.70
2023-02-16T22:36:26.067Z,4.30
2023-02-16T22:38:54.173Z,4.07
2023-02-16T22:41:22.035Z,3.70
2023-02-16T22:43:52.964Z,3.30
2023-02-16T22:46:20.168Z,3.00
2023-02-16T22:48:46.836Z,3.42
2023-02-16T22:51:14.752Z,2.80
2023-02-16T22:53:41.836Z,2.65
2023-02-16T22:56:15.840Z,2.40
2023-02-16T22:58:43.096Z,2.65
2023-02-16T23:01:16.160Z,2.78
2023-02-16T23:03:45.572Z,2.50
2023-02-16T23:06:18.719Z,2.40
2023-02-16T23:08:46.416Z,2.78
2023-02-16T23:11:13.194Z,2.35
2023-02-16T23:13:39.913Z,2.22
2023-02-16T23:16:09.104Z,2.70
2023-02-16T23:18:35.916Z,2.63
2023-02-16T23:21:08.271Z,2.50
2023-02-16T23:26:02.086Z,2.70
2023-02-16T23:28:29.128Z,2.42
2023-02-16T23:30:57.195Z,2.50
2023-02-16T23:33:24.300Z,2.58
2023-02-16T23:35:51.392Z,2.45
2023-02-16T23:38:18.864Z,2.70
2023-02-16T23:40:47.245Z,2.90
2023-02-16T23:43:14.630Z,2.90
2023-02-16T23:45:42.908Z,2.67
2023-02-16T23:48:09.786Z,2.60
2023-02-16T23:50:36.460Z,3.72
2023-02-16T23:53:03.140Z,3.15
2023-02-16T23:55:29.808Z,3.28
2023-02-16T23:57:56.485Z,3.40
